Time;durP1;ratioP1;P1;durP2;ratioP2;P2;SDS_P1;SDS_P2;PMS_P1;PMS_P2;Temp;Humidity;BMP_temperature;BMP_pressure;BME280_temperature;BME280_humidity;BME280_pressure;Samples;Min_cycle;Max_cycle;Signal;HPM_P1;HPM_P2
2022/07/11 00:00:27;;;;;;;;;;;19.60;73.70;;;;;;5017997;28;19921;-74
2022/07/11 00:02:54;;;;;;;;;;;19.60;73.40;;;;;;5037220;28;19921;-74
2022/07/11 00:05:21;;;;;;;;;;;19.50;73.50;;;;;;5036632;28;19925;-74
2022/07/11 00:07:49;;;;;;;;;;;19.50;73.80;;;;;;5035414;28;19921;-75
2022/07/11 00:10:16;;;;;;;;;;;19.50;74.00;;;;;;5019436;28;19921;-74
2022/07/11 00:12:44;;;;;;;;;;;19.50;73.60;;;;;;5019431;28;19932;-74
2022/07/11 00:15:11;;;;;;;;;;;19.40;73.80;;;;;;5034408;28;19947;-74
2022/07/11 00:17:38;;;;;;;;;;;19.40;74.20;;;;;;5036680;28;19921;-74
2022/07/11 00:20:06;;;;;;;;;;;19.40;73.60;;;;;;5035092;28;19921;-74
2022/07/11 00:22:34;;;;;;;;;;;19.40;73.70;;;;;;5018895;28;19928;-73
2022/07/11 00:25:01;;;;;;;;;;;19.10;74.00;;;;;;5036299;28;19925;-74
2022/07/11 00:27:28;;;;;;;;;;;19.30;74.50;;;;;;5034293;28;19928;-75
2022/07/11 00:29:56;;;;;;;;;;;19.30;73.90;;;;;;5036109;28;19921;-73
2022/07/11 00:32:23;;;;;;;;;;;19.30;74.30;;;;;;5036037;28;19921;-74
2022/07/11 00:34:51;;;;;;;;;;;19.30;74.50;;;;;;5019520;28;19929;-74
2022/07/11 00:37:19;;;;;;;;;;;19.20;74.30;;;;;;4983119;28;19928;-74
2022/07/11 00:39:46;;;;;;;;;;;19.20;74.30;;;;;;4998998;28;20260;-74
2022/07/11 00:42:16;;;;;;;;;;;19.10;74.90;;;;;;4997577;28;20276;-74
2022/07/11 00:44:43;;;;;;;;;;;19.20;75.10;;;;;;4999380;28;19921;-73
2022/07/11 00:47:11;;;;;;;;;;;19.10;75.00;;;;;;5014888;28;19921;-74
2022/07/11 00:49:38;;;;;;;;;;;19.10;74.70;;;;;;4982973;28;19921;-74
2022/07/11 00:52:06;;;;;;;;;;;19.00;75.90;;;;;;4999042;28;19928;-74
2022/07/11 00:54:33;;;;;;;;;;;19.00;74.60;;;;;;5014914;28;19940;-74
2022/07/11 00:57:01;;;;;;;;;;;19.00;75.70;;;;;;5015886;28;20260;-74
2022/07/11 00:59:29;;;;;;;;;;;19.00;76.00;;;;;;4998763;28;19921;-74
2022/07/11 01:01:56;;;;;;;;;;;18.90;76.00;;;;;;4997456;28;19921;-74
2022/07/11 01:04:24;;;;;;;;;;;19.00;76.30;;;;;;4998919;28;20385;-74
2022/07/11 01:06:51;;;;;;;;;;;18.90;76.00;;;;;;4997610;28;20347;-74
2022/07/11 01:09:19;;;;;;;;;;;18.80;76.20;;;;;;5015824;28;19944;-74
2022/07/11 01:11:46;;;;;;;;;;;18.70;76.10;;;;;;4982186;28;19933;-74
2022/07/11 01:14:14;;;;;;;;;;;18.70;76.50;;;;;;4997744;28;19932;-73
2022/07/11 01:16:41;;;;;;;;;;;18.60;76.60;;;;;;4998797;28;19929;-74
2022/07/11 01:19:08;;;;;;;;;;;18.70;76.50;;;;;;4998617;28;19921;-74
2022/07/11 01:21:40;;;;;;;;;;;18.60;77.00;;;;;;4996993;28;20360;-74
2022/07/11 01:24:08;;;;;;;;;;;18.70;77.40;;;;;;4998722;28;20272;-73
2022/07/11 01:26:36;;;;;;;;;;;18.60;77.50;;;;;;5015893;28;20352;-73
2022/07/11 01:29:08;;;;;;;;;;;18.60;77.50;;;;;;4997216;28;19932;-74
2022/07/11 01:31:39;;;;;;;;;;;18.50;77.90;;;;;;5015192;28;19929;-74
2022/07/11 01:34:06;;;;;;;;;;;18.50;77.20;;;;;;5012215;28;19920;-74
2022/07/11 01:36:34;;;;;;;;;;;18.50;77.00;;;;;;5034243;28;19928;-74
2022/07/11 01:39:01;;;;;;;;;;;18.40;77.00;;;;;;5035025;28;20416;-74
2022/07/11 01:41:29;;;;;;;;;;;18.30;77.10;;;;;;5034253;28;19921;-74
2022/07/11 01:43:56;;;;;;;;;;;18.30;78.40;;;;;;5035281;28;19921;-74
2022/07/11 01:46:24;;;;;;;;;;;18.20;77.80;;;;;;5034167;28;19921;-74
2022/07/11 01:48:51;;;;;;;;;;;18.20;78.50;;;;;;5032925;28;19936;-74
2022/07/11 01:51:19;;;;;;;;;;;18.10;78.30;;;;;;5017833;28;19921;-73
2022/07/11 01:53:46;;;;;;;;;;;18.10;78.50;;;;;;5034061;28;19921;-74
2022/07/11 01:56:14;;;;;;;;;;;18.00;78.70;;;;;;5034891;28;20263;-74
2022/07/11 01:58:48;;;;;;;;;;;18.00;79.20;;;;;;5017558;28;19925;-73
2022/07/11 02:01:15;;;;;;;;;;;17.90;79.10;;;;;;5032864;28;19921;-74
2022/07/11 02:03:43;;;;;;;;;;;17.90;79.40;;;;;;5034609;28;19928;-74
2022/07/11 02:06:11;;;;;;;;;;;17.80;79.30;;;;;;5034782;28;19929;-73
2022/07/11 02:08:39;;;;;;;;;;;17.80;79.50;;;;;;5033797;28;19921;-74
2022/07/11 02:11:07;;;;;;;;;;;17.70;79.90;;;;;;5017830;28;19980;-73
2022/07/11 02:13:34;;;;;;;;;;;17.70;79.80;;;;;;5032767;28;19921;-74
2022/07/11 02:16:02;;;;;;;;;;;17.70;80.00;;;;;;5033775;28;19925;-73
2022/07/11 02:18:30;;;;;;;;;;;17.70;80.60;;;;;;5033734;28;19928;-74
2022/07/11 02:20:57;;;;;;;;;;;17.60;80.50;;;;;;5033575;28;19921;-74
2022/07/11 02:23:25;;;;;;;;;;;17.50;80.80;;;;;;5033799;28;20241;-74
2022/07/11 02:25:53;;;;;;;;;;;17.50;81.00;;;;;;5034039;28;20374;-74
2022/07/11 02:28:20;;;;;;;;;;;17.50;81.10;;;;;;5032568;28;19921;-74
2022/07/11 02:30:47;;;;;;;;;;;17.50;81.10;;;;;;5034590;28;19976;-73
2022/07/11 02:33:15;;;;;;;;;;;17.50;81.40;;;;;;5031527;28;19921;-73
2022/07/11 02:35:44;;;;;;;;;;;17.50;81.60;;;;;;5013809;28;19921;-74
2022/07/11 02:38:11;;;;;;;;;;;17.50;81.70;;;;;;5014981;28;19922;-74
2022/07/11 02:40:39;;;;;;;;;;;17.40;81.90;;;;;;4996593;28;20272;-73
2022/07/11 02:43:07;;;;;;;;;;;17.40;82.40;;;;;;4981488;28;19922;-75
2022/07/11 02:45:36;;;;;;;;;;;17.40;82.20;;;;;;5018349;28;19928;-74
2022/07/11 02:48:05;;;;;;;;;;;17.30;82.30;;;;;;5017128;28;20264;-74
2022/07/11 02:50:33;;;;;;;;;;;17.30;82.70;;;;;;5001118;28;19921;-74
2022/07/11 02:53:00;;;;;;;;;;;17.30;83.00;;;;;;5001079;28;20341;-74
2022/07/11 02:55:28;;;;;;;;;;;17.30;83.00;;;;;;5016971;28;19921;-74
2022/07/11 02:57:55;;;;;;;;;;;17.20;83.30;;;;;;4984643;28;19921;-74
2022/07/11 03:00:22;;;;;;;;;;;17.30;83.70;;;;;;4999699;28;20276;-74
2022/07/11 03:02:50;;;;;;;;;;;17.20;84.10;;;;;;5018181;28;19929;-74
2022/07/11 03:05:17;;;;;;;;;;;17.20;84.50;;;;;;5000929;28;19928;-74
2022/07/11 03:07:45;;;;;;;;;;;17.20;84.50;;;;;;4999541;28;19921;-74
2022/07/11 03:10:12;;;;;;;;;;;17.10;84.50;;;;;;5000684;28;19925;-74
2022/07/11 03:12:41;;;;;;;;;;;17.20;84.70;;;;;;5001345;28;19921;-74
2022/07/11 03:15:09;;;;;;;;;;;17.10;84.90;;;;;;4999932;28;20242;-73
2022/07/11 03:17:36;;;;;;;;;;;18.50;85.50;;;;;;5017769;28;20387;-73
2022/07/11 03:20:04;;;;;;;;;;;17.10;85.20;;;;;;4999573;28;19940;-74
2022/07/11 03:22:32;;;;;;;;;;;17.20;84.90;;;;;;5000340;28;20345;-73
2022/07/11 03:25:06;;;;;;;;;;;17.10;84.90;;;;;;5000817;28;19922;-74
2022/07/11 03:27:33;;;;;;;;;;;17.10;84.90;;;;;;5016753;28;19929;-73
2022/07/11 03:30:03;;;;;;;;;;;17.10;85.20;;;;;;4984454;28;19922;-74
2022/07/11 03:32:30;;;;;;;;;;;17.10;85.60;;;;;;5000243;28;19929;-73
2022/07/11 03:37:44;;;;;;;;;;;17.00;85.70;;;;;;5037367;28;19921;-74
2022/07/11 03:40:11;;;;;;;;;;;17.00;86.10;;;;;;5035883;28;19921;-73
2022/07/11 03:42:38;;;;;;;;;;;16.90;86.10;;;;;;5037188;28;19943;-74
2022/07/11 03:45:09;;;;;;;;;;;16.90;86.20;;;;;;5036201;28;19921;-73
2022/07/11 03:47:39;;;;;;;;;;;16.90;86.60;;;;;;5035685;28;19921;-74
2022/07/11 03:50:06;;;;;;;;;;;16.90;86.50;;;;;;5036873;28;19943;-73
2022/07/11 03:52:34;;;;;;;;;;;16.80;86.60;;;;;;5035820;28;19921;-74
2022/07/11 03:55:01;;;;;;;;;;;16.80;86.60;;;;;;5034844;28;19921;-74
2022/07/11 03:57:29;;;;;;;;;;;16.80;86.80;;;;;;5036021;28;19928;-74
2022/07/11 03:59:56;;;;;;;;;;;16.80;87.80;;;;;;5035960;28;19935;-73
2022/07/11 04:02:24;;;;;;;;;;;16.80;87.40;;;;;;5034655;28;19928;-74
2022/07/11 04:04:51;;;;;;;;;;;16.80;87.90;;;;;;5036209;28;19921;-74
2022/07/11 04:07:20;;;;;;;;;;;16.80;87.50;;;;;;5034499;28;19921;-73
2022/07/11 04:09:47;;;;;;;;;;;16.80;87.50;;;;;;5036814;28;19925;-74
2022/07/11 04:12:15;;;;;;;;;;;16.80;87.50;;;;;;5035586;28;19928;-73
2022/07/11 04:14:42;;;;;;;;;;;16.80;87.80;;;;;;5034522;28;20263;-73
2022/07/11 04:17:09;;;;;;;;;;;16.80;87.70;;;;;;5036720;28;19932;-74
2022/07/11 04:19:38;;;;;;;;;;;16.80;87.60;;;;;;5036531;28;20352;-73
2022/07/11 04:22:05;;;;;;;;;;;16.70;88.10;;;;;;5034486;28;20366;-73
2022/07/11 04:24:33;;;;;;;;;;;16.70;87.90;;;;;;5036548;28;20332;-74
2022/07/11 04:27:00;;;;;;;;;;;16.70;88.20;;;;;;5034362;28;20514;-74
2022/07/11 04:29:28;;;;;;;;;;;16.70;88.30;;;;;;5018945;28;19921;-74
2022/07/11 04:31:55;;;;;;;;;;;16.70;88.70;;;;;;5036041;28;20263;-73
2022/07/11 04:34:23;;;;;;;;;;;16.70;88.90;;;;;;5017611;28;20255;-73
2022/07/11 04:36:50;;;;;;;;;;;16.70;88.80;;;;;;5035958;28;19921;-74
2022/07/11 04:39:18;;;;;;;;;;;16.60;88.80;;;;;;5035986;28;19928;-74
2022/07/11 04:41:45;;;;;;;;;;;16.70;87.80;;;;;;5033876;28;19928;-74
2022/07/11 04:44:12;;;;;;;;;;;18.00;88.90;;;;;;5035650;28;19928;-74
2022/07/11 04:46:40;;;;;;;;;;;16.70;87.80;;;;;;5034565;28;19921;-74
2022/07/11 04:49:08;;;;;;;;;;;16.80;88.50;;;;;;5035709;28;20272;-73
2022/07/11 04:51:36;;;;;;;;;;;16.80;88.20;;;;;;5035886;28;19921;-73
2022/07/11 04:54:03;;;;;;;;;;;16.80;87.70;;;;;;5033925;28;20267;-74
2022/07/11 04:56:31;;;;;;;;;;;16.80;87.60;;;;;;5036049;28;19921;-74
2022/07/11 04:58:58;;;;;;;;;;;16.80;87.80;;;;;;5034720;28;19944;-73
2022/07/11 05:01:28;;;;;;;;;;;16.90;88.00;;;;;;5033627;28;19921;-73
2022/07/11 05:03:56;;;;;;;;;;;16.90;88.30;;;;;;5035961;28;19929;-73
2022/07/11 05:06:24;;;;;;;;;;;16.90;87.60;;;;;;5034145;28;19940;-73
2022/07/11 05:08:51;;;;;;;;;;;16.90;87.70;;;;;;5033202;28;19923;-74
2022/07/11 05:11:19;;;;;;;;;;;16.90;88.00;;;;;;5036012;28;19931;-74
2022/07/11 05:13:49;;;;;;;;;;;16.90;88.30;;;;;;5034053;28;20344;-73
2022/07/11 05:16:17;;;;;;;;;;;16.90;88.80;;;;;;5035590;28;19921;-74
2022/07/11 05:18:44;;;;;;;;;;;17.00;88.50;;;;;;5034415;28;19924;-73
2022/07/11 05:21:12;;;;;;;;;;;17.00;88.10;;;;;;5034055;28;20284;-74
2022/07/11 05:23:40;;;;;;;;;;;17.00;88.50;;;;;;5018552;28;19921;-74
2022/07/11 05:26:10;;;;;;;;;;;17.00;88.40;;;;;;5035273;28;19921;-74
2022/07/11 05:28:43;;;;;;;;;;;17.10;88.70;;;;;;5032327;28;20372;-74
2022/07/11 05:31:13;;;;;;;;;;;17.00;88.30;;;;;;5035538;28;20372;-74
2022/07/11 05:33:41;;;;;;;;;;;17.20;89.20;;;;;;5032989;28;20107;-73
2022/07/11 05:36:09;;;;;;;;;;;17.20;88.70;;;;;;5035608;28;19921;-74
2022/07/11 05:38:36;;;;;;;;;;;17.20;88.70;;;;;;5034735;28;20351;-74
2022/07/11 05:41:04;;;;;;;;;;;17.30;88.60;;;;;;5034097;28;19921;-74
2022/07/11 05:43:31;;;;;;;;;;;17.30;88.40;;;;;;5035414;28;20322;-74
2022/07/11 05:45:59;;;;;;;;;;;17.30;88.60;;;;;;5017510;28;19932;-74
2022/07/11 05:48:26;;;;;;;;;;;17.40;88.80;;;;;;5033029;28;20274;-73
2022/07/11 05:50:53;;;;;;;;;;;17.40;88.40;;;;;;5018473;28;19921;-74
2022/07/11 05:53:21;;;;;;;;;;;17.40;89.00;;;;;;5034473;28;19929;-74
2022/07/11 05:55:48;;;;;;;;;;;17.50;88.50;;;;;;5035068;28;19929;-74
2022/07/11 05:58:16;;;;;;;;;;;17.50;88.60;;;;;;5034793;28;19921;-74
2022/07/11 06:00:43;;;;;;;;;;;17.60;87.90;;;;;;5016267;28;19921;-73
2022/07/11 06:03:10;;;;;;;;;;;17.60;88.00;;;;;;5034598;28;20248;-74
2022/07/11 06:05:38;;;;;;;;;;;17.60;88.00;;;;;;5034379;28;19921;-74
2022/07/11 06:10:52;;;;;;;;;;;17.80;87.90;;;;;;5035160;28;19920;-74
2022/07/11 06:13:20;;;;;;;;;;;17.90;88.30;;;;;;5033899;28;20371;-74
2022/07/11 06:15:47;;;;;;;;;;;18.20;88.70;;;;;;5033881;28;19920;-73
2022/07/11 06:18:14;;;;;;;;;;;18.00;88.40;;;;;;5034778;28;19925;-74
2022/07/11 06:20:42;;;;;;;;;;;18.10;88.20;;;;;;5037184;28;19928;-73
2022/07/11 06:23:09;;;;;;;;;;;18.10;88.00;;;;;;5038026;28;20284;-73
2022/07/11 06:25:37;;;;;;;;;;;18.10;87.60;;;;;;5037773;28;19928;-73
2022/07/11 06:28:05;;;;;;;;;;;18.20;87.60;;;;;;5037303;28;20269;-74
2022/07/11 06:30:32;;;;;;;;;;;18.30;88.10;;;;;;5021173;28;19932;-74
2022/07/11 06:33:00;;;;;;;;;;;18.40;87.70;;;;;;5038466;28;19928;-73
2022/07/11 06:35:27;;;;;;;;;;;18.50;87.60;;;;;;5017318;28;19928;-73
2022/07/11 06:37:56;;;;;;;;;;;18.60;87.10;;;;;;4985451;28;19936;-74
2022/07/11 06:40:23;;;;;;;;;;;18.70;87.10;;;;;;5017140;28;19921;-74
2022/07/11 06:42:51;;;;;;;;;;;18.80;87.40;;;;;;5001094;28;19921;-73
2022/07/11 06:45:19;;;;;;;;;;;18.80;86.70;;;;;;5018983;28;19936;-74
2022/07/11 06:47:46;;;;;;;;;;;18.90;86.30;;;;;;5017154;28;19922;-74
2022/07/11 06:50:14;;;;;;;;;;;18.90;86.60;;;;;;5018227;28;19921;-73
2022/07/11 06:52:41;;;;;;;;;;;19.00;86.60;;;;;;5018180;28;20360;-74
2022/07/11 06:55:11;;;;;;;;;;;19.00;86.20;;;;;;4967902;28;19925;-74
2022/07/11 06:57:39;;;;;;;;;;;19.10;85.10;;;;;;5000759;28;19922;-73
2022/07/11 07:00:09;;;;;;;;;;;19.20;84.90;;;;;;5016801;28;19929;-74
2022/07/11 07:02:38;;;;;;;;;;;19.30;84.60;;;;;;4985255;28;19933;-73
2022/07/11 07:05:06;;;;;;;;;;;19.30;83.80;;;;;;5001173;28;19921;-74
2022/07/11 07:07:40;;;;;;;;;;;19.40;84.70;;;;;;4999665;28;19921;-75
2022/07/11 07:10:07;;;;;;;;;;;19.40;84.40;;;;;;5000912;28;20359;-74
2022/07/11 07:12:39;;;;;;;;;;;19.50;84.30;;;;;;5000722;28;19925;-74
2022/07/11 07:15:06;;;;;;;;;;;19.60;84.30;;;;;;5016882;28;20340;-74
2022/07/11 07:17:34;;;;;;;;;;;19.70;83.80;;;;;;5000739;28;20097;-74
2022/07/11 07:20:03;;;;;;;;;;;19.70;83.30;;;;;;5016605;28;19922;-74
2022/07/11 07:22:30;;;;;;;;;;;19.70;83.10;;;;;;4984382;28;19922;-73
2022/07/11 07:24:58;;;;;;;;;;;19.80;83.10;;;;;;5000975;28;19929;-74
2022/07/11 07:27:25;;;;;;;;;;;19.90;83.70;;;;;;4999547;28;19921;-73
2022/07/11 07:29:54;;;;;;;;;;;20.00;83.50;;;;;;4999923;28;19921;-73
2022/07/11 07:32:22;;;;;;;;;;;19.80;82.20;;;;;;5017486;28;19921;-74
2022/07/11 07:34:50;;;;;;;;;;;20.10;82.20;;;;;;5009597;28;19921;-74
2022/07/11 07:37:17;;;;;;;;;;;20.10;82.60;;;;;;5036895;28;19928;-74
2022/07/11 07:39:45;;;;;;;;;;;20.20;82.20;;;;;;5019757;28;19925;-73
2022/07/11 07:42:12;;;;;;;;;;;20.20;81.30;;;;;;5035091;28;19921;-74
2022/07/11 07:44:40;;;;;;;;;;;20.30;81.70;;;;;;5020019;28;19920;-73
2022/07/11 07:47:07;;;;;;;;;;;20.40;81.00;;;;;;5034851;28;19921;-74
2022/07/11 07:49:35;;;;;;;;;;;20.50;79.60;;;;;;5036101;28;20251;-73
2022/07/11 07:52:02;;;;;;;;;;;20.50;80.10;;;;;;5036832;28;19921;-74
2022/07/11 07:54:30;;;;;;;;;;;20.60;79.80;;;;;;5036134;28;19940;-74
2022/07/11 07:56:57;;;;;;;;;;;20.60;79.50;;;;;;5036165;28;19921;-74
2022/07/11 07:59:25;;;;;;;;;;;20.70;79.30;;;;;;5035854;28;19924;-74
2022/07/11 08:01:52;;;;;;;;;;;20.80;78.70;;;;;;5035503;28;19944;-74
2022/07/11 08:04:20;;;;;;;;;;;20.90;78.50;;;;;;5019846;28;20347;-73
2022/07/11 08:06:48;;;;;;;;;;;21.00;78.20;;;;;;5034950;28;19924;-74
2022/07/11 08:09:15;;;;;;;;;;;21.00;78.30;;;;;;5036802;28;19925;-73
2022/07/11 08:11:48;;;;;;;;;;;21.10;78.20;;;;;;5035895;28;19932;-74
2022/07/11 08:14:16;;;;;;;;;;;21.10;77.50;;;;;;5034570;28;20267;-74
2022/07/11 08:16:43;;;;;;;;;;;21.30;77.50;;;;;;5019632;28;19921;-74
2022/07/11 08:19:11;;;;;;;;;;;21.30;77.60;;;;;;5035448;28;19921;-74
2022/07/11 08:21:39;;;;;;;;;;;21.50;76.90;;;;;;5035013;28;19921;-75
2022/07/11 08:24:07;;;;;;;;;;;21.40;77.00;;;;;;5036383;28;19940;-74
2022/07/11 08:26:34;;;;;;;;;;;21.50;77.40;;;;;;5035313;28;19921;-74
2022/07/11 08:29:02;;;;;;;;;;;21.60;77.00;;;;;;5034044;28;19920;-74
2022/07/11 08:31:30;;;;;;;;;;;21.60;76.70;;;;;;5036388;28;19920;-74
2022/07/11 08:33:58;;;;;;;;;;;21.60;76.20;;;;;;5034184;28;19920;-74
2022/07/11 08:36:29;;;;;;;;;;;21.70;75.40;;;;;;5019124;28;19932;-74
2022/07/11 08:38:58;;;;;;;;;;;22.00;75.90;;;;;;5035316;28;20271;-73
2022/07/11 08:41:25;;;;;;;;;;;21.90;75.30;;;;;;5033080;28;19940;-74
2022/07/11 08:43:53;;;;;;;;;;;22.00;74.70;;;;;;5036127;28;19928;-74
2022/07/11 08:46:21;;;;;;;;;;;22.00;75.60;;;;;;5035839;28;19921;-73
2022/07/11 08:48:49;;;;;;;;;;;22.00;75.90;;;;;;5034070;28;19928;-74
2022/07/11 08:51:17;;;;;;;;;;;22.00;75.50;;;;;;5035184;28;20237;-74
2022/07/11 08:53:44;;;;;;;;;;;22.10;75.00;;;;;;5034595;28;19921;-74
2022/07/11 08:56:20;;;;;;;;;;;22.20;75.40;;;;;;5034720;28;19932;-74
2022/07/11 08:58:48;;;;;;;;;;;22.20;74.70;;;;;;5019114;28;19936;-74
2022/07/11 09:01:27;;;;;;;;;;;22.30;74.30;;;;;;5034624;28;19921;-73
2022/07/11 09:03:54;;;;;;;;;;;22.30;73.70;;;;;;5035065;28;19921;-74
2022/07/11 09:06:22;;;;;;;;;;;22.50;73.50;;;;;;5018578;28;20344;-74
2022/07/11 09:08:56;;;;;;;;;;;22.50;72.90;;;;;;5033571;28;19921;-74
2022/07/11 09:11:23;;;;;;;;;;;22.60;73.00;;;;;;5018408;28;19921;-74
2022/07/11 09:13:50;;;;;;;;;;;22.70;71.80;;;;;;5017055;28;19921;-74
2022/07/11 09:16:21;;;;;;;;;;;22.80;72.10;;;;;;5034636;28;19928;-74
2022/07/11 09:18:55;;;;;;;;;;;23.00;71.20;;;;;;5034749;28;19929;-73
2022/07/11 09:26:55;;;;;;;;;;;23.00;72.20;;;;;;5034229;28;19928;-74
2022/07/11 09:29:24;;;;;;;;;;;23.10;72.10;;;;;;5034456;28;19920;-74
2022/07/11 09:31:52;;;;;;;;;;;23.20;70.40;;;;;;5035168;28;19921;-74
2022/07/11 09:34:26;;;;;;;;;;;23.30;70.00;;;;;;5017013;28;19976;-74
2022/07/11 09:36:55;;;;;;;;;;;23.40;69.80;;;;;;5034603;28;19921;-73
2022/07/11 09:39:24;;;;;;;;;;;23.40;70.30;;;;;;5034507;28;19921;-74
2022/07/11 09:41:52;;;;;;;;;;;23.40;70.30;;;;;;5016541;28;19921;-74
2022/07/11 09:44:20;;;;;;;;;;;23.50;71.10;;;;;;5035249;28;19921;-74
2022/07/11 09:46:49;;;;;;;;;;;23.50;70.20;;;;;;5034006;28;19924;-74
2022/07/11 09:49:28;;;;;;;;;;;23.50;69.70;;;;;;5034142;28;19921;-73
2022/07/11 09:52:05;;;;;;;;;;;23.50;70.60;;;;;;5035064;28;19940;-74
2022/07/11 09:54:33;;;;;;;;;;;23.60;70.20;;;;;;5020760;28;19920;-73
2022/07/11 09:57:09;;;;;;;;;;;23.60;70.40;;;;;;5039318;28;19929;-74
2022/07/11 09:59:37;;;;;;;;;;;23.60;69.00;;;;;;5038005;28;19921;-75
2022/07/11 10:02:05;;;;;;;;;;;23.60;69.30;;;;;;5020715;28;20004;-74
2022/07/11 10:04:32;;;;;;;;;;;24.90;71.20;;;;;;5039076;28;19928;-74
2022/07/11 10:07:00;;;;;;;;;;;23.80;69.30;;;;;;5036883;28;19948;-74
2022/07/11 10:09:28;;;;;;;;;;;23.90;69.00;;;;;;5021984;28;19932;-74
2022/07/11 10:11:56;;;;;;;;;;;24.00;68.50;;;;;;5038934;28;20263;-73
2022/07/11 10:14:23;;;;;;;;;;;24.00;68.40;;;;;;5020441;28;19921;-74
2022/07/11 10:17:09;;;;;;;;;;;24.20;68.80;;;;;;5038045;28;19921;-73
2022/07/11 10:19:48;;;;;;;;;;;24.20;68.80;;;;;;5038215;28;19921;-74
2022/07/11 10:22:26;;;;;;;;;;;24.30;68.90;;;;;;5036756;28;19920;-74
2022/07/11 10:24:56;;;;;;;;;;;24.40;67.90;;;;;;5037837;28;19921;-74
2022/07/11 10:27:36;;;;;;;;;;;24.50;67.70;;;;;;5020334;28;19928;-74
2022/07/11 10:30:12;;;;;;;;;;;24.70;67.10;;;;;;5038717;28;19921;-74
2022/07/11 10:33:06;;;;;;;;;;;24.70;67.30;;;;;;5038416;28;19932;-74
2022/07/11 10:35:33;;;;;;;;;;;24.70;67.40;;;;;;5032411;28;20276;-74
2022/07/11 10:38:05;;;;;;;;;;;24.80;66.90;;;;;;5021189;28;19932;-74
2022/07/11 10:40:50;;;;;;;;;;;25.00;65.00;;;;;;5037209;28;19954;-74
2022/07/11 10:43:26;;;;;;;;;;;25.20;65.30;;;;;;5038653;28;19928;-74
2022/07/11 10:46:09;;;;;;;;;;;25.30;65.00;;;;;;5020784;28;19921;-73
2022/07/11 10:48:57;;;;;;;;;;;25.20;64.80;;;;;;5036044;28;19936;-74
2022/07/11 10:51:27;;;;;;;;;;;25.20;66.10;;;;;;4998608;28;19921;-75
2022/07/11 10:53:57;;;;;;;;;;;25.30;65.60;;;;;;5019859;28;19921;-74
2022/07/11 10:56:40;;;;;;;;;;;25.20;65.50;;;;;;5021086;28;20344;-74
2022/07/11 10:59:21;;;;;;;;;;;25.20;65.20;;;;;;5038360;28;20249;-74
2022/07/11 11:02:02;;;;;;;;;;;25.20;65.10;;;;;;5035297;28;19932;-74
2022/07/11 11:04:44;;;;;;;;;;;25.20;65.20;;;;;;5036110;28;19921;-74
2022/07/11 11:07:30;;;;;;;;;;;25.20;65.50;;;;;;5036823;28;19928;-73
2022/07/11 11:09:58;;;;;;;;;;;25.10;65.20;;;;;;5037765;28;19921;-75
2022/07/11 11:12:44;;;;;;;;;;;25.10;65.60;;;;;;5037754;28;19925;-74
2022/07/11 11:15:30;;;;;;;;;;;25.20;65.90;;;;;;5036648;28;19921;-75
2022/07/11 11:17:57;;;;;;;;;;;25.30;65.60;;;;;;5037095;28;19921;-74
2022/07/11 11:20:31;;;;;;;;;;;25.30;64.60;;;;;;5036568;28;19921;-73
2022/07/11 11:23:09;;;;;;;;;;;25.30;64.60;;;;;;5036590;28;19921;-74
2022/07/11 11:25:37;;;;;;;;;;;25.40;65.10;;;;;;5020420;28;19924;-75
2022/07/11 11:28:04;;;;;;;;;;;25.50;64.00;;;;;;5036259;28;19921;-74
2022/07/11 11:30:32;;;;;;;;;;;25.50;63.80;;;;;;5036391;28;19976;-74
2022/07/11 11:33:00;;;;;;;;;;;25.50;64.60;;;;;;5019541;28;19932;-74
2022/07/11 11:35:27;;;;;;;;;;;25.60;64.70;;;;;;4999012;28;19921;-74
2022/07/11 11:37:58;;;;;;;;;;;25.60;64.10;;;;;;5001031;28;19928;-74
2022/07/11 11:40:25;;;;;;;;;;;25.80;64.10;;;;;;5016148;28;19921;-76
2022/07/11 11:42:52;;;;;;;;;;;25.80;64.00;;;;;;5017176;28;19929;-74
2022/07/11 11:45:21;;;;;;;;;;;25.90;63.70;;;;;;4983956;28;19933;-74
2022/07/11 11:47:49;;;;;;;;;;;25.90;64.30;;;;;;4999031;28;19944;-74
2022/07/11 11:50:17;;;;;;;;;;;25.90;63.90;;;;;;4983899;28;20028;-74
2022/07/11 11:52:45;;;;;;;;;;;26.00;64.40;;;;;;4983964;28;20264;-75
2022/07/11 11:55:13;;;;;;;;;;;26.00;63.80;;;;;;5016092;28;19929;-74
2022/07/11 11:57:41;;;;;;;;;;;26.00;64.20;;;;;;4967603;28;20277;-73
2022/07/11 12:00:22;;;;;;;;;;;26.30;63.90;;;;;;5016225;28;19921;-74
2022/07/11 12:03:09;;;;;;;;;;;26.50;63.90;;;;;;4999674;28;20257;-75
2022/07/11 12:05:37;;;;;;;;;;;26.70;62.10;;;;;;5016984;28;19933;-74
2022/07/11 12:08:04;;;;;;;;;;;26.80;62.50;;;;;;4998355;28;19921;-74
2022/07/11 12:10:32;;;;;;;;;;;26.80;62.50;;;;;;5016930;28;19921;-74
2022/07/11 12:13:05;;;;;;;;;;;26.90;61.80;;;;;;4999920;28;19921;-74
2022/07/11 12:16:38;;;;;;;;;;;27.00;61.30;;;;;;5015429;28;19921;-75
2022/07/11 12:18:21;;;;;;;;;;;27.00;61.50;;;;;;5016742;28;20233;-74
2022/07/11 12:20:48;;;;;;;;;;;27.10;61.10;;;;;;5015741;28;20352;-74
2022/07/11 12:23:19;;;;;;;;;;;27.10;61.10;;;;;;4999430;28;20225;-74
2022/07/11 12:25:49;;;;;;;;;;;27.00;61.00;;;;;;4999401;28;19944;-74
2022/07/11 12:28:17;;;;;;;;;;;27.00;61.60;;;;;;4997987;28;20280;-74
2022/07/11 12:30:44;;;;;;;;;;;27.90;62.50;;;;;;4999216;28;19928;-74
2022/07/11 12:33:13;;;;;;;;;;;27.10;60.80;;;;;;4999631;28;19921;-75
2022/07/11 12:36:00;;;;;;;;;;;27.20;61.10;;;;;;4998142;28;20304;-74
2022/07/11 12:38:48;;;;;;;;;;;27.30;60.60;;;;;;5016259;28;19937;-74
2022/07/11 12:41:15;;;;;;;;;;;27.30;61.50;;;;;;4998259;28;19923;-74
2022/07/11 12:46:36;;;;;;;;;;;27.60;60.90;;;;;;4998957;28;19922;-74
2022/07/11 12:49:05;;;;;;;;;;;27.80;60.90;;;;;;5014896;28;19932;-75
2022/07/11 12:51:39;;;;;;;;;;;28.00;60.50;;;;;;4998831;28;19928;-74
2022/07/11 12:54:08;;;;;;;;;;;28.20;59.70;;;;;;4998048;28;19925;-74
2022/07/11 12:56:37;;;;;;;;;;;28.30;60.10;;;;;;4982913;28;20267;-75
2022/07/11 12:59:05;;;;;;;;;;;28.40;60.00;;;;;;4982627;28;19921;-74
2022/07/11 13:01:53;;;;;;;;;;;28.50;60.00;;;;;;5014847;28;19936;-75
2022/07/11 13:04:34;;;;;;;;;;;28.60;59.50;;;;;;4999002;28;19921;-75
2022/07/11 13:10:07;;;;;;;;;;;28.80;60.30;;;;;;4998666;28;19922;-74
2022/07/11 13:12:35;;;;;;;;;;;28.80;58.90;;;;;;4982157;28;20375;-75
2022/07/11 13:15:09;;;;;;;;;;;28.90;59.30;;;;;;5014808;28;19922;-74
2022/07/11 13:18:08;;;;;;;;;;;29.00;58.20;;;;;;4998645;28;20275;-75
2022/07/11 13:20:37;;;;;;;;;;;29.00;58.50;;;;;;4995738;28;19925;-74
2022/07/11 13:23:06;;;;;;;;;;;29.10;58.20;;;;;;5015327;28;19921;-74
2022/07/11 13:25:42;;;;;;;;;;;29.10;58.00;;;;;;4999828;28;19921;-74
2022/07/11 13:28:11;;;;;;;;;;;29.20;58.60;;;;;;4996960;28;19992;-75
2022/07/11 13:30:39;;;;;;;;;;;29.20;58.30;;;;;;4982555;28;19921;-75
2022/07/11 13:33:26;;;;;;;;;;;29.30;58.60;;;;;;4985721;28;19921;-75
2022/07/11 13:35:53;;;;;;;;;;;29.40;57.50;;;;;;5034378;28;19921;-74
2022/07/11 13:38:21;;;;;;;;;;;29.50;58.70;;;;;;5035051;28;20263;-74
2022/07/11 13:40:48;;;;;;;;;;;29.50;57.70;;;;;;5033299;28;19921;-74
2022/07/11 13:43:16;;;;;;;;;;;29.60;57.00;;;;;;5034938;28;19921;-75
2022/07/11 13:45:47;;;;;;;;;;;29.70;57.20;;;;;;5034908;28;19936;-75
2022/07/11 13:48:15;;;;;;;;;;;29.90;56.90;;;;;;5033283;28;20363;-74
2022/07/11 13:50:43;;;;;;;;;;;30.00;57.10;;;;;;5017843;28;20374;-75
2022/07/11 13:53:11;;;;;;;;;;;30.10;56.50;;;;;;5034408;28;19928;-74
2022/07/11 13:55:38;;;;;;;;;;;30.10;55.70;;;;;;5034039;28;19932;-74
2022/07/11 13:58:23;;;;;;;;;;;30.10;56.20;;;;;;5034098;28;20267;-74
2022/07/11 14:00:57;;;;;;;;;;;30.00;56.20;;;;;;5033377;28;19921;-75
2022/07/11 14:03:28;;;;;;;;;;;29.80;56.80;;;;;;5034413;28;20299;-74
2022/07/11 14:05:55;;;;;;;;;;;29.70;56.90;;;;;;5034182;28;19921;-75
2022/07/11 14:08:23;;;;;;;;;;;29.70;58.00;;;;;;5032824;28;19921;-74
2022/07/11 14:10:51;;;;;;;;;;;29.80;56.90;;;;;;5034279;28;20347;-74
2022/07/11 14:13:19;;;;;;;;;;;30.00;56.00;;;;;;5034324;28;19947;-74
2022/07/11 14:15:47;;;;;;;;;;;30.10;56.00;;;;;;5034615;28;19921;-74
2022/07/11 14:18:14;;;;;;;;;;;30.00;56.30;;;;;;5034296;28;19920;-74
2022/07/11 14:20:42;;;;;;;;;;;30.00;56.00;;;;;;5016428;28;19921;-75
2022/07/11 14:23:09;;;;;;;;;;;29.90;56.30;;;;;;5034603;28;19921;-75
2022/07/11 14:25:37;;;;;;;;;;;29.90;56.40;;;;;;5034701;28;19921;-75
2022/07/11 14:28:05;;;;;;;;;;;30.10;56.60;;;;;;5033553;28;19921;-75
2022/07/11 14:30:33;;;;;;;;;;;30.30;56.30;;;;;;5034620;28;19921;-75
2022/07/11 14:33:00;;;;;;;;;;;29.60;55.20;;;;;;5001182;28;19921;-74
2022/07/11 14:35:28;;;;;;;;;;;30.50;54.80;;;;;;4996605;28;19933;-74
2022/07/11 14:37:55;;;;;;;;;;;30.50;55.70;;;;;;4997791;28;19947;-74
2022/07/11 14:40:23;;;;;;;;;;;30.50;55.70;;;;;;5015421;28;19932;-74
2022/07/11 14:42:55;;;;;;;;;;;30.50;57.30;;;;;;4970253;28;20344;-73
2022/07/11 14:45:23;;;;;;;;;;;30.80;55.30;;;;;;5018674;28;19929;-74